Time;durP1;ratioP1;P1;durP2;ratioP2;P2;SDS_P1;SDS_P2;PMS_P1;PMS_P2;Temp;Humidity;BMP_temperature;BMP_pressure;BME280_temperature;BME280_humidity;BME280_pressure;Samples;Min_cycle;Max_cycle;Signal;HPM_P1;HPM_P2
2022/12/31 00:00:59;;;;;;;0.90;0.80;;;13.60;99.90;;;;;;6087231;23;20456;-69
2022/12/31 00:03:26;;;;;;;1.00;0.70;;;13.70;99.90;;;;;;6095133;23;20518;-69
2022/12/31 00:05:53;;;;;;;1.43;0.80;;;13.70;99.90;;;;;;6105881;23;20913;-70
2022/12/31 00:08:20;;;;;;;0.70;0.60;;;13.70;99.90;;;;;;6094706;23;20523;-69
2022/12/31 00:10:49;;;;;;;0.83;0.70;;;13.70;99.90;;;;;;6097674;23;20499;-70
2022/12/31 00:13:17;;;;;;;0.70;0.70;;;13.80;99.90;;;;;;6085271;23;20542;-70
2022/12/31 00:15:44;;;;;;;0.70;0.70;;;13.80;99.90;;;;;;6094185;23;20458;-69
2022/12/31 00:18:11;;;;;;;1.43;0.80;;;13.70;99.90;;;;;;6099097;23;20959;-70
2022/12/31 00:20:39;;;;;;;1.43;1.17;;;13.60;99.90;;;;;;6110997;23;20529;-69
2022/12/31 00:23:07;;;;;;;1.50;0.80;;;13.50;99.90;;;;;;6089732;23;20489;-69
2022/12/31 00:25:35;;;;;;;0.80;0.80;;;13.40;99.90;;;;;;6095706;23;20508;-69
2022/12/31 00:28:03;;;;;;;1.10;0.80;;;13.30;99.90;;;;;;6096005;23;20529;-69
2022/12/31 00:30:31;;;;;;;0.90;0.90;;;13.30;99.90;;;;;;6101518;23;20870;-69
2022/12/31 00:32:58;;;;;;;1.03;0.90;;;13.20;99.90;;;;;;6094834;23;20464;-69
2022/12/31 00:35:25;;;;;;;0.97;0.90;;;13.20;99.90;;;;;;6100198;23;20446;-68
2022/12/31 00:37:53;;;;;;;1.27;0.90;;;13.20;99.90;;;;;;6103008;23;20514;-69
2022/12/31 00:40:20;;;;;;;0.93;0.90;;;13.10;99.90;;;;;;6108425;23;20438;-69
2022/12/31 00:42:47;;;;;;;1.93;0.80;;;13.10;99.90;;;;;;6114048;23;20514;-69
2022/12/31 00:45:16;;;;;;;0.87;0.80;;;13.10;99.90;;;;;;6091742;23;20514;-70
2022/12/31 00:47:43;;;;;;;1.20;0.80;;;13.10;99.90;;;;;;6090425;23;20977;-69
2022/12/31 00:50:10;;;;;;;1.27;0.80;;;13.10;99.90;;;;;;6087973;23;20478;-69
2022/12/31 00:52:37;;;;;;;0.97;0.70;;;13.10;99.90;;;;;;6100829;23;20920;-70
2022/12/31 00:55:04;;;;;;;1.00;0.80;;;13.20;99.90;;;;;;6093499;23;20462;-70
2022/12/31 00:57:31;;;;;;;2.10;1.20;;;13.20;99.90;;;;;;6092523;23;20794;-70
2022/12/31 00:59:59;;;;;;;0.80;0.80;;;13.30;99.90;;;;;;6092843;23;21024;-70
2022/12/31 01:02:27;;;;;;;1.20;0.90;;;13.40;99.90;;;;;;6102878;23;20837;-70
2022/12/31 01:04:54;;;;;;;0.90;0.70;;;13.50;99.90;;;;;;6090040;23;20556;-70
2022/12/31 01:07:21;;;;;;;0.70;0.70;;;13.60;99.90;;;;;;6109591;23;20467;-70
2022/12/31 01:09:48;;;;;;;1.17;0.80;;;13.70;99.90;;;;;;6112035;23;20551;-69
2022/12/31 01:12:15;;;;;;;0.80;0.80;;;13.80;99.90;;;;;;6102696;23;20467;-70
2022/12/31 01:14:42;;;;;;;0.93;0.70;;;13.90;99.90;;;;;;6090213;23;20526;-69
2022/12/31 01:17:09;;;;;;;0.87;0.70;;;13.90;99.90;;;;;;6089642;23;20508;-69
2022/12/31 01:19:37;;;;;;;0.63;0.63;;;14.00;99.90;;;;;;6088728;23;21001;-69
2022/12/31 01:22:04;;;;;;;1.27;0.80;;;14.10;99.90;;;;;;6097669;23;21360;-69
2022/12/31 01:24:31;;;;;;;1.20;0.87;;;14.10;99.90;;;;;;6089617;23;20430;-70
2022/12/31 01:26:58;;;;;;;1.00;0.90;;;14.10;99.90;;;;;;6089099;23;20578;-69
2022/12/31 01:29:25;;;;;;;0.80;0.80;;;14.20;99.90;;;;;;6108121;23;20441;-69
2022/12/31 01:31:52;;;;;;;0.70;0.60;;;14.20;99.90;;;;;;6093152;23;20468;-69
2022/12/31 01:34:19;;;;;;;1.27;0.90;;;14.20;99.90;;;;;;6085533;23;21005;-69
2022/12/31 01:36:48;;;;;;;1.40;0.80;;;14.20;99.90;;;;;;6088359;23;20950;-69
2022/12/31 01:39:15;;;;;;;1.20;0.80;;;14.20;99.90;;;;;;6093301;23;20438;-69
2022/12/31 01:41:44;;;;;;;0.80;0.70;;;14.20;99.90;;;;;;6089411;23;20537;-70
2022/12/31 01:44:47;;;;;;;0.80;0.77;;;14.20;99.90;;;;;;6108742;23;20471;-69
2022/12/31 01:47:17;;;;;;;0.70;0.70;;;14.10;99.90;;;;;;6098990;23;20465;-70
2022/12/31 01:49:49;;;;;;;0.70;0.70;;;14.20;99.90;;;;;;6100119;23;20547;-70
2022/12/31 01:52:22;;;;;;;0.93;0.80;;;14.10;99.90;;;;;;6090032;23;20575;-70
2022/12/31 01:54:55;;;;;;;0.87;0.80;;;14.20;99.90;;;;;;6087742;23;20452;-69
2022/12/31 01:57:23;;;;;;;0.87;0.67;;;14.10;99.90;;;;;;6108975;23;20440;-70
2022/12/31 01:59:52;;;;;;;0.90;0.90;;;14.10;99.90;;;;;;6110801;23;20514;-70
2022/12/31 02:02:19;;;;;;;1.30;0.70;;;14.10;99.90;;;;;;6097116;23;20464;-70
2022/12/31 02:04:47;;;;;;;0.73;0.70;;;14.10;99.90;;;;;;6089812;23;20515;-70
2022/12/31 02:07:14;;;;;;;1.00;0.90;;;14.40;99.90;;;;;;6084999;23;20449;-70
2022/12/31 02:09:43;;;;;;;1.10;0.80;;;14.10;99.90;;;;;;6090425;23;20468;-70
2022/12/31 02:12:10;;;;;;;0.80;0.60;;;14.00;99.90;;;;;;6086529;23;20510;-70
2022/12/31 02:14:40;;;;;;;1.30;0.70;;;14.00;99.90;;;;;;6087752;23;20476;-69
2022/12/31 02:17:14;;;;;;;1.03;0.80;;;14.00;99.90;;;;;;6104354;23;20825;-70
2022/12/31 02:20:08;;;;;;;0.90;0.70;;;14.00;99.90;;;;;;6099966;23;20435;-69
2022/12/31 02:22:52;;;;;;;1.00;0.77;;;13.90;99.90;;;;;;6090443;23;20956;-70
2022/12/31 02:25:36;;;;;;;0.80;0.70;;;13.90;99.90;;;;;;6082680;23;20438;-69
2022/12/31 02:28:18;;;;;;;1.13;0.80;;;13.90;99.90;;;;;;6089523;23;20513;-69
2022/12/31 02:30:49;;;;;;;0.80;0.70;;;13.90;99.90;;;;;;6091256;23;20461;-69
2022/12/31 02:33:22;;;;;;;0.93;0.70;;;13.90;99.90;;;;;;6090508;23;20531;-69
2022/12/31 02:35:53;;;;;;;0.73;0.73;;;14.00;99.90;;;;;;6089975;23;20464;-69
2022/12/31 02:38:24;;;;;;;1.23;1.00;;;14.10;99.90;;;;;;6089381;23;20506;-69
2022/12/31 02:40:54;;;;;;;0.90;0.80;;;14.00;99.90;;;;;;6087540;23;20786;-69
2022/12/31 02:43:21;;;;;;;0.70;0.70;;;14.10;99.90;;;;;;6087477;23;20522;-69
2022/12/31 02:45:56;;;;;;;1.23;0.70;;;14.10;99.90;;;;;;6089747;23;20460;-69
2022/12/31 02:48:36;;;;;;;1.33;0.87;;;14.20;99.90;;;;;;6093059;23;20478;-69
2022/12/31 02:51:19;;;;;;;0.83;0.80;;;14.20;99.90;;;;;;6091320;23;20554;-69
2022/12/31 02:54:02;;;;;;;2.67;0.80;;;14.20;99.90;;;;;;6095383;23;20628;-69
2022/12/31 02:56:38;;;;;;;1.13;0.80;;;14.10;99.90;;;;;;6068965;23;20438;-69
2022/12/31 03:02:18;;;;;;;2.27;1.07;;;14.10;99.90;;;;;;6099456;23;20488;-69
2022/12/31 03:04:50;;;;;;;1.30;0.73;;;14.10;99.90;;;;;;6113145;23;20442;-69
2022/12/31 03:07:21;;;;;;;1.30;0.90;;;14.10;99.90;;;;;;6093602;23;20525;-69
2022/12/31 03:09:48;;;;;;;3.93;1.13;;;14.10;99.90;;;;;;6114872;23;20523;-69
2022/12/31 03:15:05;;;;;;;1.07;0.70;;;14.20;99.90;;;;;;6084581;23;21051;-69
2022/12/31 03:17:34;;;;;;;1.10;0.80;;;14.20;99.90;;;;;;6088481;23;20496;-69
2022/12/31 03:22:47;;;;;;;1.10;0.80;;;14.30;99.90;;;;;;6097304;23;20470;-69
2022/12/31 03:25:34;;;;;;;1.23;0.83;;;14.60;99.90;;;;;;6110121;23;20967;-69
2022/12/31 03:28:03;;;;;;;1.77;0.90;;;14.40;99.90;;;;;;6089010;23;20442;-69
2022/12/31 03:30:31;;;;;;;1.10;0.80;;;14.40;99.90;;;;;;6102885;23;20469;-69
2022/12/31 03:33:01;;;;;;;1.30;0.80;;;14.50;99.90;;;;;;6105163;23;20484;-69
2022/12/31 03:35:29;;;;;;;1.03;0.93;;;14.40;99.90;;;;;;6086784;23;20848;-69
2022/12/31 03:37:56;;;;;;;2.93;0.90;;;14.50;99.90;;;;;;6107161;23;20519;-69
2022/12/31 03:40:25;;;;;;;1.23;0.90;;;14.40;99.90;;;;;;6099539;23;20480;-69
2022/12/31 03:42:53;;;;;;;1.57;0.80;;;14.50;99.90;;;;;;6097691;23;20460;-68
2022/12/31 03:45:20;;;;;;;1.00;0.90;;;14.50;99.90;;;;;;6082392;23;20522;-69
2022/12/31 03:47:47;;;;;;;0.90;0.80;;;14.50;99.90;;;;;;6096722;23;20453;-69
2022/12/31 03:50:17;;;;;;;1.23;1.00;;;14.50;99.90;;;;;;6097069;23;20532;-70
2022/12/31 03:52:45;;;;;;;0.80;0.80;;;14.60;99.90;;;;;;6092342;23;20506;-69
2022/12/31 03:55:12;;;;;;;1.10;0.70;;;14.60;99.90;;;;;;6088862;23;20488;-69
2022/12/31 03:57:40;;;;;;;1.37;0.80;;;14.70;99.90;;;;;;6088435;23;20438;-69
2022/12/31 04:00:11;;;;;;;0.70;0.70;;;14.90;99.90;;;;;;6105171;23;20521;-69
2022/12/31 04:02:38;;;;;;;0.80;0.80;;;14.90;99.90;;;;;;6066194;23;20622;-69
2022/12/31 04:05:05;;;;;;;0.80;0.80;;;15.00;99.90;;;;;;6096405;23;20512;-69
2022/12/31 04:07:34;;;;;;;1.10;0.70;;;15.10;99.90;;;;;;6090872;23;20446;-69
2022/12/31 04:10:02;;;;;;;0.80;0.77;;;15.10;99.90;;;;;;6109720;23;20846;-68
2022/12/31 04:12:29;;;;;;;0.83;0.80;;;15.10;99.90;;;;;;6098971;23;20493;-68
2022/12/31 04:14:56;;;;;;;0.90;0.73;;;15.10;99.90;;;;;;6115916;23;20522;-69
2022/12/31 04:17:23;;;;;;;0.60;0.57;;;15.10;99.90;;;;;;6088008;23;20445;-69
2022/12/31 04:19:50;;;;;;;1.00;0.70;;;15.20;99.90;;;;;;6092885;23;20771;-69
2022/12/31 04:22:17;;;;;;;1.30;0.80;;;15.20;99.90;;;;;;6084981;23;20473;-69
2022/12/31 04:24:45;;;;;;;1.27;0.67;;;15.20;99.90;;;;;;6096547;23;20433;-69
2022/12/31 04:27:13;;;;;;;0.80;0.80;;;15.30;99.90;;;;;;6093722;23;20461;-69
2022/12/31 04:29:40;;;;;;;0.87;0.80;;;15.30;99.90;;;;;;6095879;23;20591;-69
2022/12/31 04:32:08;;;;;;;0.93;0.77;;;15.30;99.90;;;;;;6088530;23;20569;-69
2022/12/31 04:34:35;;;;;;;0.70;0.60;;;15.30;99.90;;;;;;6098069;23;20521;-69
2022/12/31 04:37:03;;;;;;;1.33;0.70;;;15.30;99.90;;;;;;6095204;23;20535;-68
2022/12/31 04:39:30;;;;;;;1.60;0.80;;;15.30;99.90;;;;;;6087693;23;20953;-70
2022/12/31 04:41:58;;;;;;;2.40;0.70;;;15.40;99.90;;;;;;6096489;23;20687;-70
2022/12/31 04:44:25;;;;;;;0.90;0.73;;;15.40;99.90;;;;;;6076284;23;20520;-70
2022/12/31 04:46:52;;;;;;;0.80;0.70;;;15.40;99.90;;;;;;6080302;23;20517;-70
2022/12/31 04:49:19;;;;;;;0.60;0.60;;;15.50;99.90;;;;;;6102436;23;20537;-70
2022/12/31 04:51:46;;;;;;;0.83;0.60;;;15.50;99.90;;;;;;6098940;23;20479;-69
2022/12/31 04:54:13;;;;;;;1.50;0.80;;;15.50;99.90;;;;;;6107653;23;20522;-70
2022/12/31 04:56:40;;;;;;;1.10;0.77;;;15.40;99.90;;;;;;6103787;23;20525;-69
2022/12/31 04:59:10;;;;;;;0.80;0.70;;;15.50;99.90;;;;;;6110309;23;20437;-69
2022/12/31 05:01:38;;;;;;;0.80;0.80;;;15.40;99.90;;;;;;6104952;23;20462;-69
2022/12/31 05:04:05;;;;;;;0.80;0.80;;;15.40;99.90;;;;;;6089161;23;20768;-69
2022/12/31 05:06:32;;;;;;;0.83;0.77;;;15.40;99.90;;;;;;6095981;23;20438;-70
2022/12/31 05:08:59;;;;;;;3.27;1.53;;;15.40;99.90;;;;;;6089111;23;20438;-70
2022/12/31 05:11:26;;;;;;;0.80;0.70;;;15.40;99.90;;;;;;6091585;23;20988;-69
2022/12/31 05:13:53;;;;;;;0.93;0.90;;;15.40;99.90;;;;;;6096227;23;20528;-69
2022/12/31 05:16:22;;;;;;;0.90;0.70;;;15.50;99.90;;;;;;6105349;23;20524;-69
2022/12/31 05:18:49;;;;;;;0.50;0.50;;;15.50;99.90;;;;;;6099242;23;20865;-69
2022/12/31 05:21:20;;;;;;;0.70;0.70;;;15.50;99.90;;;;;;6104912;23;20981;-69
2022/12/31 05:23:48;;;;;;;0.80;0.70;;;15.50;99.90;;;;;;6087030;23;20790;-69
2022/12/31 05:26:15;;;;;;;0.90;0.60;;;15.40;99.90;;;;;;6107362;23;20444;-69
2022/12/31 05:28:43;;;;;;;0.60;0.60;;;15.40;99.90;;;;;;6116367;23;20571;-69
2022/12/31 05:31:10;;;;;;;1.17;0.70;;;15.50;99.90;;;;;;6087287;23;20509;-70
2022/12/31 05:33:38;;;;;;;0.77;0.60;;;15.50;99.90;;;;;;6090279;23;20830;-69
2022/12/31 05:36:06;;;;;;;0.70;0.60;;;15.50;99.90;;;;;;6090111;23;20521;-69
2022/12/31 05:38:33;;;;;;;0.80;0.70;;;15.50;99.90;;;;;;6102291;23;20491;-69
2022/12/31 05:41:01;;;;;;;0.70;0.70;;;15.50;99.90;;;;;;6098651;23;20992;-69
2022/12/31 05:43:29;;;;;;;1.03;0.60;;;15.50;99.90;;;;;;6087490;23;20499;-69
2022/12/31 05:45:56;;;;;;;0.70;0.70;;;15.50;99.90;;;;;;6087742;23;21130;-69
2022/12/31 05:48:23;;;;;;;1.27;0.80;;;15.50;99.90;;;;;;6100906;23;20994;-69
2022/12/31 05:50:51;;;;;;;1.30;1.00;;;15.50;99.90;;;;;;6104740;23;20997;-69
2022/12/31 05:53:19;;;;;;;0.70;0.70;;;15.50;99.90;;;;;;6090161;23;20444;-69
2022/12/31 05:55:47;;;;;;;0.80;0.60;;;15.60;99.90;;;;;;6109799;23;20528;-69
2022/12/31 05:58:15;;;;;;;0.90;0.80;;;15.60;99.90;;;;;;6117272;23;20515;-69
2022/12/31 06:00:42;;;;;;;1.23;0.63;;;15.60;99.90;;;;;;6110940;23;20462;-69
2022/12/31 06:03:10;;;;;;;0.87;0.60;;;15.60;99.90;;;;;;6095379;23;20470;-69
2022/12/31 06:05:40;;;;;;;0.70;0.70;;;15.60;99.90;;;;;;6102239;23;20998;-69
2022/12/31 06:08:08;;;;;;;1.73;0.80;;;15.60;99.90;;;;;;6090408;23;20418;-69
2022/12/31 06:10:35;;;;;;;1.20;0.80;;;15.70;99.90;;;;;;6107648;23;20562;-69
2022/12/31 06:13:02;;;;;;;1.00;1.00;;;15.60;99.90;;;;;;6105572;23;20497;-69
2022/12/31 06:15:29;;;;;;;0.80;0.80;;;15.60;99.90;;;;;;6111571;23;20795;-69
2022/12/31 06:17:56;;;;;;;0.80;0.70;;;15.70;99.90;;;;;;6085033;23;20860;-70
2022/12/31 06:20:23;;;;;;;0.80;0.80;;;15.60;99.90;;;;;;6080603;23;20442;-70
2022/12/31 06:22:50;;;;;;;2.30;1.00;;;15.70;99.90;;;;;;6087936;23;20512;-70
2022/12/31 06:25:18;;;;;;;0.77;0.77;;;15.80;99.90;;;;;;6089913;23;20440;-69
2022/12/31 06:27:45;;;;;;;0.77;0.70;;;15.80;99.90;;;;;;6071307;23;20507;-65
2022/12/31 06:30:13;;;;;;;2.33;0.93;;;15.60;99.90;;;;;;6083598;23;20448;-69
2022/12/31 06:32:41;;;;;;;1.70;0.90;;;15.60;99.90;;;;;;6090846;23;20478;-69
2022/12/31 06:35:08;;;;;;;0.77;0.77;;;15.60;99.90;;;;;;6088897;23;20442;-69
2022/12/31 06:37:35;;;;;;;0.80;0.77;;;15.50;99.90;;;;;;6090765;23;20456;-69
2022/12/31 06:40:02;;;;;;;1.80;0.90;;;15.50;99.90;;;;;;6090909;23;20481;-68
2022/12/31 06:42:31;;;;;;;0.80;0.80;;;15.50;99.90;;;;;;6091162;23;20458;-69
2022/12/31 06:44:58;;;;;;;0.87;0.70;;;15.50;99.90;;;;;;6091872;23;20429;-69
2022/12/31 06:47:26;;;;;;;1.40;0.93;;;15.50;99.90;;;;;;6084093;23;20442;-69
2022/12/31 06:49:53;;;;;;;1.00;0.80;;;15.50;99.90;;;;;;6078120;23;20435;-69
2022/12/31 06:52:20;;;;;;;0.67;0.67;;;15.40;99.90;;;;;;6091489;23;20549;-69
2022/12/31 06:54:48;;;;;;;1.23;0.70;;;15.40;99.90;;;;;;6092145;23;20430;-69
2022/12/31 06:57:16;;;;;;;1.00;0.70;;;15.40;99.90;;;;;;6090898;23;20521;-69
2022/12/31 06:59:45;;;;;;;0.70;0.60;;;15.40;99.90;;;;;;6089962;23;20434;-69
2022/12/31 07:02:24;;;;;;;0.90;0.60;;;15.30;99.90;;;;;;6090484;23;20476;-69
2022/12/31 07:05:14;;;;;;;0.70;0.70;;;15.30;99.90;;;;;;6087564;23;20439;-69
2022/12/31 07:07:53;;;;;;;0.80;0.80;;;15.20;99.90;;;;;;6077382;23;20439;-69
2022/12/31 07:10:28;;;;;;;1.80;0.80;;;15.20;99.90;;;;;;6087900;23;20441;-69
2022/12/31 07:13:07;;;;;;;1.13;0.87;;;15.20;99.90;;;;;;6091671;23;20537;-69
2022/12/31 07:15:50;;;;;;;2.00;0.80;;;15.20;99.90;;;;;;6091550;23;20994;-69
2022/12/31 07:18:25;;;;;;;0.90;0.90;;;15.10;99.90;;;;;;6090166;23;20438;-69
2022/12/31 07:20:53;;;;;;;1.10;0.93;;;15.10;99.90;;;;;;6065660;23;20466;-83
2022/12/31 07:23:20;;;;;;;0.93;0.80;;;15.10;99.90;;;;;;6084177;23;20505;-69
2022/12/31 07:25:55;;;;;;;1.60;0.90;;;15.20;99.90;;;;;;6077266;23;21025;-68
2022/12/31 07:28:39;;;;;;;0.97;0.70;;;15.20;99.90;;;;;;6073291;23;20550;-70
2022/12/31 07:31:15;;;;;;;1.17;0.80;;;15.20;99.90;;;;;;6075623;23;20477;-69
2022/12/31 07:33:55;;;;;;;0.70;0.70;;;15.20;99.90;;;;;;6075318;23;20442;-70
2022/12/31 07:36:35;;;;;;;0.73;0.70;;;15.20;99.90;;;;;;6079478;23;20430;-69
2022/12/31 07:39:08;;;;;;;1.13;0.80;;;15.20;99.90;;;;;;6081550;23;20441;-70
2022/12/31 07:41:46;;;;;;;1.20;0.80;;;15.20;99.90;;;;;;6088993;23;20900;-71
2022/12/31 07:44:34;;;;;;;1.37;0.80;;;15.30;99.90;;;;;;6090824;23;20438;-70
2022/12/31 07:47:05;;;;;;;0.90;0.80;;;15.30;99.90;;;;;;6088280;23;20453;-70
2022/12/31 07:49:34;;;;;;;0.93;0.90;;;15.40;99.90;;;;;;6116764;23;20437;-70
2022/12/31 07:52:01;;;;;;;0.70;0.70;;;15.40;99.90;;;;;;6098416;23;20863;-70
2022/12/31 07:54:28;;;;;;;1.70;1.10;;;15.40;99.90;;;;;;6102501;23;20520;-70
2022/12/31 07:56:55;;;;;;;0.70;0.70;;;15.50;99.90;;;;;;6111074;23;20521;-69
2022/12/31 07:59:38;;;;;;;1.57;0.80;;;15.50;99.90;;;;;;6100269;23;20892;-70
2022/12/31 08:02:15;;;;;;;0.70;0.70;;;15.50;99.90;;;;;;6099504;23;21053;-70
2022/12/31 08:04:49;;;;;;;0.93;0.70;;;15.60;99.90;;;;;;6108332;23;20446;-70
2022/12/31 08:07:22;;;;;;;0.63;0.63;;;15.60;99.90;;;;;;6088001;23;20438;-70
2022/12/31 08:10:03;;;;;;;1.00;0.70;;;15.60;99.90;;;;;;6075464;23;20466;-70
2022/12/31 08:12:35;;;;;;;1.00;0.70;;;15.70;99.90;;;;;;6077183;23;20826;-69
2022/12/31 08:15:02;;;;;;;0.90;0.73;;;15.70;99.90;;;;;;6072727;23;20438;-69
2022/12/31 08:17:31;;;;;;;1.43;0.80;;;15.70;99.90;;;;;;6076301;23;20478;-69
2022/12/31 08:19:58;;;;;;;0.90;0.80;;;15.80;99.90;;;;;;6076827;23;20535;-69
2022/12/31 08:22:40;;;;;;;0.70;0.70;;;15.80;99.90;;;;;;6078995;23;20529;-69
2022/12/31 08:25:16;;;;;;;1.50;1.03;;;15.90;99.90;;;;;;6073209;23;20438;-69
2022/12/31 08:27:52;;;;;;;1.50;0.80;;;16.00;99.90;;;;;;6077221;23;20433;-68
2022/12/31 08:30:21;;;;;;;0.70;0.60;;;16.00;99.90;;;;;;6073536;23;20948;-69
2022/12/31 08:32:58;;;;;;;0.90;0.90;;;16.00;99.90;;;;;;6075030;23;20545;-68
2022/12/31 08:35:38;;;;;;;1.33;0.80;;;16.00;99.90;;;;;;6079097;23;20462;-68
2022/12/31 08:38:17;;;;;;;1.17;0.80;;;16.00;99.90;;;;;;6079002;23;20445;-68
2022/12/31 08:40:51;;;;;;;1.43;1.03;;;16.10;99.90;;;;;;6076207;23;20459;-80
2022/12/31 08:43:32;;;;;;;1.23;1.10;;;16.10;99.90;;;;;;6076616;23;20793;-80
2022/12/31 08:46:00;;;;;;;0.80;0.80;;;16.30;99.90;;;;;;6062070;23;20442;-70
2022/12/31 08:48:35;;;;;;;1.23;0.90;;;16.20;99.90;;;;;;6072833;23;20441;-70
2022/12/31 08:51:03;;;;;;;0.87;0.73;;;16.20;99.90;;;;;;6062523;23;20470;-71
2022/12/31 08:53:31;;;;;;;0.70;0.70;;;16.20;99.90;;;;;;6071679;23;21139;-71
2022/12/31 08:56:04;;;;;;;0.80;0.80;;;16.30;99.90;;;;;;6081297;23;20554;-68
2022/12/31 08:58:41;;;;;;;0.90;0.80;;;16.30;99.90;;;;;;6069035;23;20435;-84
2022/12/31 09:01:09;;;;;;;1.83;1.00;;;16.30;99.90;;;;;;6062875;23;20542;-68
2022/12/31 09:03:59;;;;;;;0.70;0.70;;;16.40;99.90;;;;;;6061134;23;20970;-67
2022/12/31 09:06:29;;;;;;;1.93;0.80;;;16.30;99.90;;;;;;6087319;23;20430;-69
2022/12/31 09:09:03;;;;;;;0.83;0.70;;;16.30;99.90;;;;;;6081215;23;20435;-69
2022/12/31 09:11:39;;;;;;;1.73;1.00;;;16.30;99.90;;;;;;6087287;23;20451;-68
2022/12/31 09:14:18;;;;;;;0.90;0.90;;;16.30;99.90;;;;;;6088465;23;20473;-69
2022/12/31 09:16:53;;;;;;;1.07;0.80;;;16.30;99.90;;;;;;6068098;23;20434;-68
2022/12/31 09:19:22;;;;;;;1.07;0.90;;;16.40;99.90;;;;;;6068906;23;20430;-68
2022/12/31 09:21:49;;;;;;;0.83;0.83;;;16.60;99.90;;;;;;6056002;23;21204;-69
2022/12/31 09:24:17;;;;;;;1.33;0.80;;;16.90;99.90;;;;;;6054472;23;20526;-68
2022/12/31 09:26:54;;;;;;;1.07;0.97;;;17.10;99.90;;;;;;6061613;23;21346;-67
2022/12/31 09:29:37;;;;;;;1.00;0.90;;;17.40;99.90;;;;;;6055128;23;20701;-69
2022/12/31 09:32:14;;;;;;;1.10;1.00;;;17.80;99.90;;;;;;6054520;23;20458;-69
2022/12/31 09:34:52;;;;;;;0.90;0.80;;;18.00;99.90;;;;;;6055453;23;20470;-69
2022/12/31 09:37:34;;;;;;;1.10;0.97;;;18.20;99.90;;;;;;6055569;23;20542;-69
2022/12/31 09:40:15;;;;;;;1.00;0.90;;;18.10;99.90;;;;;;6056111;23;20596;-70
2022/12/31 09:43:04;;;;;;;1.53;0.83;;;18.10;99.90;;;;;;6054988;23;20970;-69
2022/12/31 09:45:50;;;;;;;1.57;1.07;;;18.00;99.90;;;;;;6060596;23;20927;-69
2022/12/31 09:48:59;;;;;;;1.10;1.00;;;17.90;99.90;;;;;;6057691;23;20443;-68
2022/12/31 09:51:31;;;;;;;0.97;0.90;;;17.90;99.90;;;;;;6015504;23;20467;-68
2022/12/31 09:54:23;;;;;;;0.87;0.87;;;18.00;99.90;;;;;;6061547;23;20469;-68
2022/12/31 09:57:06;;;;;;;1.00;0.90;;;18.10;99.90;;;;;;6062341;23;20449;-68
2022/12/31 09:59:40;;;;;;;0.73;0.73;;;18.00;99.90;;;;;;6064415;23;20490;-68
2022/12/31 10:02:23;;;;;;;1.53;1.00;;;18.10;99.90;;;;;;6065838;23;20490;-68
2022/12/31 10:05:01;;;;;;;1.10;0.87;;;18.20;99.90;;;;;;6068062;23;20435;-69
2022/12/31 10:07:43;;;;;;;0.80;0.70;;;18.40;99.90;;;;;;6072296;23;20430;-73
2022/12/31 10:10:18;;;;;;;0.90;0.70;;;18.60;99.90;;;;;;6067883;23;20434;-74
2022/12/31 10:13:05;;;;;;;2.40;1.20;;;18.90;99.90;;;;;;6066559;23;20461;-74
2022/12/31 10:16:01;;;;;;;1.07;0.80;;;19.00;99.90;;;;;;6062835;23;20522;-69
2022/12/31 10:18:54;;;;;;;1.53;0.80;;;19.10;99.90;;;;;;6071995;23;20458;-69
2022/12/31 10:21:46;;;;;;;0.90;0.73;;;19.00;99.90;;;;;;6061770;23;20494;-68
2022/12/31 10:24:45;;;;;;;0.80;0.70;;;18.90;99.90;;;;;;6063040;23;20542;-68
2022/12/31 10:27:28;;;;;;;1.07;0.77;;;18.90;99.90;;;;;;6063209;23;20445;-68
2022/12/31 10:29:59;;;;;;;2.13;0.73;;;18.90;99.90;;;;;;6063162;23;20514;-68
2022/12/31 10:32:35;;;;;;;0.80;0.80;;;19.00;99.90;;;;;;6063446;23;20524;-69
2022/12/31 10:35:18;;;;;;;0.90;0.80;;;19.20;99.90;;;;;;6061505;23;20435;-69
2022/12/31 10:37:53;;;;;;;0.80;0.80;;;19.40;99.90;;;;;;6084404;23;20962;-68
2022/12/31 10:40:29;;;;;;;2.60;0.70;;;19.60;99.90;;;;;;6085701;23;20465;-69
2022/12/31 10:43:20;;;;;;;1.00;0.90;;;19.60;99.90;;;;;;6085930;23;20439;-69
2022/12/31 10:46:27;;;;;;;0.93;0.80;;;19.60;99.90;;;;;;6090168;23;20973;-69
2022/12/31 10:49:30;;;;;;;1.00;0.80;;;19.60;99.90;;;;;;6091738;23;20431;-69
2022/12/31 10:52:23;;;;;;;1.40;0.83;;;19.70;99.90;;;;;;6087200;23;20462;-68
2022/12/31 10:55:24;;;;;;;1.10;0.80;;;19.60;99.90;;;;;;6084771;23;20441;-69
2022/12/31 10:58:32;;;;;;;1.20;0.80;;;19.70;99.90;;;;;;6078384;23;20445;-69
2022/12/31 11:01:07;;;;;;;0.80;0.80;;;19.80;99.90;;;;;;6089806;23;20544;-68
2022/12/31 11:04:02;;;;;;;1.23;0.80;;;19.80;99.90;;;;;;6085054;23;20870;-72
2022/12/31 11:06:57;;;;;;;0.93;0.70;;;19.80;99.90;;;;;;6082801;23;20438;-70
2022/12/31 11:10:04;;;;;;;1.00;0.70;;;19.80;99.90;;;;;;6073782;23;20913;-75
2022/12/31 11:12:59;;;;;;;0.90;0.67;;;19.90;99.90;;;;;;6094689;23;20588;-70
2022/12/31 11:15:55;;;;;;;1.03;0.93;;;19.90;99.90;;;;;;6089208;23;20839;-69
2022/12/31 11:18:30;;;;;;;1.17;1.10;;;20.10;99.90;;;;;;6097617;23;20497;-70
2022/12/31 11:21:13;;;;;;;0.90;0.90;;;20.10;99.90;;;;;;6086840;23;20450;-69
2022/12/31 11:23:52;;;;;;;0.80;0.70;;;20.10;99.90;;;;;;6089162;23;20782;-69
2022/12/31 11:26:31;;;;;;;0.87;0.77;;;20.10;99.90;;;;;;6091635;23;20909;-69
2022/12/31 11:29:08;;;;;;;1.10;0.60;;;20.10;99.90;;;;;;6082781;23;20433;-68
2022/12/31 11:31:51;;;;;;;1.57;0.80;;;20.00;99.90;;;;;;6089224;23;20462;-68
2022/12/31 11:34:49;;;;;;;0.80;0.80;;;20.00;99.90;;;;;;6086400;23;20881;-68
2022/12/31 11:37:31;;;;;;;0.87;0.80;;;20.10;99.90;;;;;;6088154;23;20465;-69
2022/12/31 11:40:12;;;;;;;2.10;1.00;;;20.20;99.90;;;;;;6117027;23;20460;-69
2022/12/31 11:42:46;;;;;;;0.90;0.70;;;20.30;99.90;;;;;;6085017;23;20449;-70
2022/12/31 11:45:19;;;;;;;1.00;0.80;;;20.30;99.90;;;;;;6083153;23;20497;-72
2022/12/31 11:48:03;;;;;;;0.80;0.80;;;20.40;99.90;;;;;;6090925;23;20438;-71
2022/12/31 11:50:38;;;;;;;1.00;0.90;;;20.30;99.90;;;;;;6086982;23;20532;-69
2022/12/31 11:53:24;;;;;;;1.53;0.63;;;20.40;99.90;;;;;;6086206;23;20461;-70
2022/12/31 11:56:03;;;;;;;1.00;0.83;;;20.40;99.90;;;;;;6094337;23;20451;-69
2022/12/31 11:58:31;;;;;;;0.97;0.90;;;20.30;99.90;;;;;;6089734;23;20525;-69
2022/12/31 12:01:06;;;;;;;0.90;0.90;;;20.30;99.90;;;;;;6085634;23;20454;-69
2022/12/31 12:03:41;;;;;;;0.70;0.70;;;20.30;99.90;;;;;;6084394;23;20515;-69
2022/12/31 12:06:12;;;;;;;1.10;1.00;;;20.30;99.90;;;;;;6091484;23;20448;-68
2022/12/31 12:08:40;;;;;;;1.17;1.00;;;20.40;99.90;;;;;;6087944;23;20941;-70
2022/12/31 12:11:17;;;;;;;0.90;0.80;;;20.30;99.90;;;;;;6083356;23;20545;-69
2022/12/31 12:13:44;;;;;;;1.40;1.00;;;20.40;99.90;;;;;;6089698;23;20458;-68
2022/12/31 12:16:12;;;;;;;0.93;0.80;;;20.40;99.90;;;;;;6094682;23;20506;-68
2022/12/31 12:18:45;;;;;;;0.90;0.70;;;20.30;99.90;;;;;;6101552;23;20438;-68
2022/12/31 12:21:14;;;;;;;0.90;0.90;;;20.30;99.90;;;;;;6083449;23;20468;-68
2022/12/31 12:23:52;;;;;;;1.10;0.90;;;20.10;99.90;;;;;;6084755;23;20935;-68
2022/12/31 12:26:29;;;;;;;0.90;0.80;;;20.10;99.90;;;;;;6096274;23;20555;-72
2022/12/31 12:28:59;;;;;;;1.10;0.70;;;20.20;99.90;;;;;;6090051;23;20923;-72
2022/12/31 12:31:26;;;;;;;0.70;0.70;;;20.20;99.90;;;;;;6089068;23;20576;-72
2022/12/31 12:33:54;;;;;;;1.13;0.80;;;20.20;99.90;;;;;;6077496;23;20493;-74
2022/12/31 12:36:22;;;;;;;0.80;0.80;;;20.20;99.90;;;;;;6077531;23;20442;-73
2022/12/31 12:38:59;;;;;;;0.90;0.70;;;20.10;99.90;;;;;;6072100;23;20434;-73
2022/12/31 12:41:26;;;;;;;1.63;0.70;;;20.10;99.90;;;;;;6065900;23;20489;-73
2022/12/31 12:44:03;;;;;;;1.00;0.80;;;20.00;99.90;;;;;;6067661;23;20445;-69
2022/12/31 12:46:32;;;;;;;1.10;0.93;;;19.90;99.90;;;;;;6075071;23;20426;-69
2022/12/31 12:49:02;;;;;;;0.80;0.70;;;19.80;99.90;;;;;;6071786;23;20437;-68
2022/12/31 12:51:43;;;;;;;0.87;0.70;;;19.70;99.90;;;;;;6075233;23;20457;-68
2022/12/31 12:54:24;;;;;;;0.80;0.70;;;19.70;99.90;;;;;;6082733;23;20513;-69
2022/12/31 12:56:59;;;;;;;0.80;0.80;;;19.70;99.90;;;;;;6087977;23;20446;-70
2022/12/31 12:59:55;;;;;;;1.27;0.90;;;19.70;99.90;;;;;;6102062;23;20451;-73
2022/12/31 13:02:49;;;;;;;1.20;0.60;;;19.70;99.90;;;;;;6086543;23;20458;-73
2022/12/31 13:05:26;;;;;;;1.47;0.70;;;19.70;99.90;;;;;;6088894;23;20514;-73
2022/12/31 13:08:08;;;;;;;0.70;0.60;;;19.70;99.90;;;;;;6084340;23;20445;-75
2022/12/31 13:10:54;;;;;;;0.87;0.67;;;19.70;99.90;;;;;;6076780;23;20558;-74
2022/12/31 13:13:29;;;;;;;0.70;0.67;;;19.70;99.90;;;;;;6112585;23;21010;-75
2022/12/31 13:16:03;;;;;;;0.70;0.70;;;19.60;99.90;;;;;;6099810;23;20445;-73
2022/12/31 13:18:42;;;;;;;1.53;0.60;;;19.60;99.90;;;;;;6082063;23;20438;-73
2022/12/31 13:21:28;;;;;;;0.97;0.77;;;19.60;99.90;;;;;;6079629;23;20503;-76
2022/12/31 13:24:02;;;;;;;0.70;0.60;;;19.60;99.90;;;;;;6083084;23;20987;-73
2022/12/31 13:26:35;;;;;;;0.83;0.60;;;19.60;99.90;;;;;;6087458;23;20509;-77
2022/12/31 13:29:05;;;;;;;1.10;1.00;;;19.50;99.90;;;;;;6106236;23;20545;-84